sensor_id;sensor_type;location;lat;lon;timestamp;P1;durP1;ratioP1;P2;durP2;ratioP2
14874;SDS011;7529;48.170;17.138;2022-09-23T00:00:17;405.10;;;381.40;;
14874;SDS011;7529;48.170;17.138;2022-09-23T00:04:28;417.60;;;392.98;;
14874;SDS011;7529;48.170;17.138;2022-09-23T00:08:39;471.45;;;441.92;;
14874;SDS011;7529;48.170;17.138;2022-09-23T00:12:51;390.80;;;368.58;;
14874;SDS011;7529;48.170;17.138;2022-09-23T00:17:03;371.25;;;350.88;;
14874;SDS011;7529;48.170;17.138;2022-09-23T00:21:15;335.27;;;317.15;;
14874;SDS011;7529;48.170;17.138;2022-09-23T00:25:28;269.75;;;255.77;;
14874;SDS011;7529;48.170;17.138;2022-09-23T00:29:39;231.20;;;219.48;;
14874;SDS011;7529;48.170;17.138;2022-09-23T00:33:54;228.45;;;216.85;;
14874;SDS011;7529;48.170;17.138;2022-09-23T00:38:08;217.48;;;206.48;;
14874;SDS011;7529;48.170;17.138;2022-09-23T00:42:20;213.75;;;202.85;;
14874;SDS011;7529;48.170;17.138;2022-09-23T00:50:49;227.60;;;215.50;;
14874;SDS011;7529;48.170;17.138;2022-09-23T00:55:07;229.43;;;217.32;;
14874;SDS011;7529;48.170;17.138;2022-09-23T00:59:41;227.95;;;216.15;;
14874;SDS011;7529;48.170;17.138;2022-09-23T01:03:53;269.42;;;255.05;;
14874;SDS011;7529;48.170;17.138;2022-09-23T01:08:08;265.63;;;251.25;;
14874;SDS011;7529;48.170;17.138;2022-09-23T01:13:12;281.00;;;265.90;;
14874;SDS011;7529;48.170;17.138;2022-09-23T01:22:55;295.65;;;280.05;;
14874;SDS011;7529;48.170;17.138;2022-09-23T01:28:19;259.52;;;245.73;;
14874;SDS011;7529;48.170;17.138;2022-09-23T01:45:58;320.48;;;302.73;;
14874;SDS011;7529;48.170;17.138;2022-09-23T01:50:16;293.70;;;278.30;;
14874;SDS011;7529;48.170;17.138;2022-09-23T01:55:32;329.77;;;311.83;;
14874;SDS011;7529;48.170;17.138;2022-09-23T01:59:38;310.80;;;293.83;;
14874;SDS011;7529;48.170;17.138;2022-09-23T02:04:24;327.27;;;309.58;;
14874;SDS011;7529;48.170;17.138;2022-09-23T02:13:26;302.05;;;285.55;;
14874;SDS011;7529;48.170;17.138;2022-09-23T02:18:08;301.60;;;285.70;;
14874;SDS011;7529;48.170;17.138;2022-09-23T02:22:54;316.92;;;299.40;;
14874;SDS011;7529;48.170;17.138;2022-09-23T02:27:30;315.23;;;297.77;;
14874;SDS011;7529;48.170;17.138;2022-09-23T02:32:22;325.90;;;307.48;;
14874;SDS011;7529;48.170;17.138;2022-09-23T02:37:29;335.02;;;315.60;;
14874;SDS011;7529;48.170;17.138;2022-09-23T02:42:14;330.35;;;311.23;;
14874;SDS011;7529;48.170;17.138;2022-09-23T02:47:08;344.25;;;324.00;;
14874;SDS011;7529;48.170;17.138;2022-09-23T02:51:34;323.65;;;305.60;;
14874;SDS011;7529;48.170;17.138;2022-09-23T02:56:11;322.70;;;303.73;;
14874;SDS011;7529;48.170;17.138;2022-09-23T03:00:48;347.83;;;326.90;;
14874;SDS011;7529;48.170;17.138;2022-09-23T03:05:20;362.55;;;339.95;;
14874;SDS011;7529;48.170;17.138;2022-09-23T03:14:57;355.65;;;333.35;;
14874;SDS011;7529;48.170;17.138;2022-09-23T03:19:26;397.50;;;370.40;;
14874;SDS011;7529;48.170;17.138;2022-09-23T03:24:01;413.02;;;384.95;;
14874;SDS011;7529;48.170;17.138;2022-09-23T03:28:33;408.20;;;380.73;;
14874;SDS011;7529;48.170;17.138;2022-09-23T03:33:02;430.55;;;401.40;;
14874;SDS011;7529;48.170;17.138;2022-09-23T03:37:34;407.88;;;379.98;;
14874;SDS011;7529;48.170;17.138;2022-09-23T03:42:22;395.48;;;368.35;;
14874;SDS011;7529;48.170;17.138;2022-09-23T03:46:51;435.58;;;405.65;;
14874;SDS011;7529;48.170;17.138;2022-09-23T03:51:21;419.80;;;391.20;;
14874;SDS011;7529;48.170;17.138;2022-09-23T03:55:50;400.33;;;373.00;;
14874;SDS011;7529;48.170;17.138;2022-09-23T04:00:18;421.77;;;393.08;;
14874;SDS011;7529;48.170;17.138;2022-09-23T04:04:44;425.35;;;396.52;;
14874;SDS011;7529;48.170;17.138;2022-09-23T04:09:10;408.42;;;381.23;;
14874;SDS011;7529;48.170;17.138;2022-09-23T04:13:40;409.23;;;381.15;;
14874;SDS011;7529;48.170;17.138;2022-09-23T04:18:12;395.88;;;369.08;;
14874;SDS011;7529;48.170;17.138;2022-09-23T04:22:41;429.27;;;399.38;;
14874;SDS011;7529;48.170;17.138;2022-09-23T04:27:12;394.45;;;368.17;;
14874;SDS011;7529;48.170;17.138;2022-09-23T04:31:41;409.70;;;382.10;;
14874;SDS011;7529;48.170;17.138;2022-09-23T04:36:11;401.00;;;374.13;;
14874;SDS011;7529;48.170;17.138;2022-09-23T04:40:41;374.67;;;349.70;;
14874;SDS011;7529;48.170;17.138;2022-09-23T04:45:11;396.75;;;370.05;;
14874;SDS011;7529;48.170;17.138;2022-09-23T04:49:42;386.98;;;360.83;;
14874;SDS011;7529;48.170;17.138;2022-09-23T04:54:12;386.40;;;360.02;;
14874;SDS011;7529;48.170;17.138;2022-09-23T04:58:42;381.80;;;356.50;;
14874;SDS011;7529;48.170;17.138;2022-09-23T05:03:14;379.65;;;354.20;;
14874;SDS011;7529;48.170;17.138;2022-09-23T05:07:49;374.92;;;350.00;;
14874;SDS011;7529;48.170;17.138;2022-09-23T05:12:19;383.13;;;357.25;;
14874;SDS011;7529;48.170;17.138;2022-09-23T05:16:48;378.77;;;353.67;;
14874;SDS011;7529;48.170;17.138;2022-09-23T05:21:19;369.98;;;346.67;;
14874;SDS011;7529;48.170;17.138;2022-09-23T05:25:58;390.42;;;364.52;;
14874;SDS011;7529;48.170;17.138;2022-09-23T05:30:30;365.42;;;341.40;;
14874;SDS011;7529;48.170;17.138;2022-09-23T05:35:02;352.52;;;330.35;;
14874;SDS011;7529;48.170;17.138;2022-09-23T05:39:32;342.02;;;321.10;;
14874;SDS011;7529;48.170;17.138;2022-09-23T05:44:02;334.17;;;314.48;;
14874;SDS011;7529;48.170;17.138;2022-09-23T05:48:33;301.23;;;283.63;;
14874;SDS011;7529;48.170;17.138;2022-09-23T05:53:04;283.67;;;268.17;;
14874;SDS011;7529;48.170;17.138;2022-09-23T05:57:34;281.27;;;266.25;;
14874;SDS011;7529;48.170;17.138;2022-09-23T06:02:04;293.30;;;277.40;;
14874;SDS011;7529;48.170;17.138;2022-09-23T06:06:38;259.13;;;245.45;;
14874;SDS011;7529;48.170;17.138;2022-09-23T06:11:09;251.48;;;238.38;;
14874;SDS011;7529;48.170;17.138;2022-09-23T06:15:40;233.38;;;221.10;;
14874;SDS011;7529;48.170;17.138;2022-09-23T06:20:11;216.80;;;204.90;;
14874;SDS011;7529;48.170;17.138;2022-09-23T06:24:40;207.48;;;196.18;;
14874;SDS011;7529;48.170;17.138;2022-09-23T06:29:11;203.02;;;191.55;;
14874;SDS011;7529;48.170;17.138;2022-09-23T06:33:41;207.82;;;195.80;;
14874;SDS011;7529;48.170;17.138;2022-09-23T06:38:14;206.27;;;195.00;;
14874;SDS011;7529;48.170;17.138;2022-09-23T06:42:43;204.15;;;193.38;;
14874;SDS011;7529;48.170;17.138;2022-09-23T06:47:13;227.07;;;215.70;;
14874;SDS011;7529;48.170;17.138;2022-09-23T06:51:43;245.68;;;234.15;;
14874;SDS011;7529;48.170;17.138;2022-09-23T06:56:12;245.75;;;234.55;;
14874;SDS011;7529;48.170;17.138;2022-09-23T07:00:44;110.85;;;106.22;;
14874;SDS011;7529;48.170;17.138;2022-09-23T07:05:14;119.28;;;114.50;;
14874;SDS011;7529;48.170;17.138;2022-09-23T07:09:45;150.35;;;144.18;;
14874;SDS011;7529;48.170;17.138;2022-09-23T07:14:16;24.25;;;22.83;;
14874;SDS011;7529;48.170;17.138;2022-09-23T07:18:45;14.43;;;13.73;;
14874;SDS011;7529;48.170;17.138;2022-09-23T07:23:15;17.02;;;16.05;;
14874;SDS011;7529;48.170;17.138;2022-09-23T07:27:48;11.75;;;11.15;;
14874;SDS011;7529;48.170;17.138;2022-09-23T07:32:18;8.85;;;8.45;;
14874;SDS011;7529;48.170;17.138;2022-09-23T07:36:50;6.20;;;5.90;;
14874;SDS011;7529;48.170;17.138;2022-09-23T07:41:21;6.15;;;5.88;;
14874;SDS011;7529;48.170;17.138;2022-09-23T07:45:54;10.05;;;9.45;;
14874;SDS011;7529;48.170;17.138;2022-09-23T07:50:23;14.13;;;13.40;;
14874;SDS011;7529;48.170;17.138;2022-09-23T07:54:53;10.07;;;9.48;;
14874;SDS011;7529;48.170;17.138;2022-09-23T07:59:22;9.95;;;9.45;;
14874;SDS011;7529;48.170;17.138;2022-09-23T08:03:52;9.20;;;8.75;;
14874;SDS011;7529;48.170;17.138;2022-09-23T08:08:27;5.60;;;5.32;;
14874;SDS011;7529;48.170;17.138;2022-09-23T08:12:56;7.35;;;6.85;;
14874;SDS011;7529;48.170;17.138;2022-09-23T08:17:27;3.53;;;3.33;;
14874;SDS011;7529;48.170;17.138;2022-09-23T08:21:57;3.00;;;2.90;;
14874;SDS011;7529;48.170;17.138;2022-09-23T08:26:27;3.40;;;3.20;;
14874;SDS011;7529;48.170;17.138;2022-09-23T08:30:57;2.83;;;2.63;;
14874;SDS011;7529;48.170;17.138;2022-09-23T08:35:28;2.83;;;2.72;;
14874;SDS011;7529;48.170;17.138;2022-09-23T08:39:58;3.20;;;3.00;;
14874;SDS011;7529;48.170;17.138;2022-09-23T08:44:39;2.75;;;2.65;;
14874;SDS011;7529;48.170;17.138;2022-09-23T08:49:29;3.58;;;2.67;;
14874;SDS011;7529;48.170;17.138;2022-09-23T08:54:08;3.22;;;3.03;;
14874;SDS011;7529;48.170;17.138;2022-09-23T09:03:35;3.05;;;2.78;;
14874;SDS011;7529;48.170;17.138;2022-09-23T09:08:23;2.90;;;2.70;;
14874;SDS011;7529;48.170;17.138;2022-09-23T09:13:15;2.83;;;2.72;;
14874;SDS011;7529;48.170;17.138;2022-09-23T09:18:07;3.40;;;3.20;;
14874;SDS011;7529;48.170;17.138;2022-09-23T09:27:21;2.60;;;2.50;;
14874;SDS011;7529;48.170;17.138;2022-09-23T09:31:53;3.10;;;2.90;;
14874;SDS011;7529;48.170;17.138;2022-09-23T09:41:13;3.35;;;3.15;;
14874;SDS011;7529;48.170;17.138;2022-09-23T09:45:51;3.25;;;3.05;;
14874;SDS011;7529;48.170;17.138;2022-09-23T09:51:18;3.20;;;3.10;;
14874;SDS011;7529;48.170;17.138;2022-09-23T10:04:33;3.42;;;3.20;;
14874;SDS011;7529;48.170;17.138;2022-09-23T10:08:48;3.47;;;3.38;;
14874;SDS011;7529;48.170;17.138;2022-09-23T10:13:22;3.17;;;3.08;;
14874;SDS011;7529;48.170;17.138;2022-09-23T10:17:35;4.43;;;4.22;;
14874;SDS011;7529;48.170;17.138;2022-09-23T10:21:54;4.80;;;4.43;;
14874;SDS011;7529;48.170;17.138;2022-09-23T10:26:09;4.60;;;4.40;;
14874;SDS011;7529;48.170;17.138;2022-09-23T10:30:23;4.00;;;3.63;;
14874;SDS011;7529;48.170;17.138;2022-09-23T10:34:36;3.85;;;3.65;;
14874;SDS011;7529;48.170;17.138;2022-09-23T10:38:55;3.13;;;2.92;;
14874;SDS011;7529;48.170;17.138;2022-09-23T10:48:49;3.92;;;3.72;;
14874;SDS011;7529;48.170;17.138;2022-09-23T11:01:59;2.63;;;2.53;;
14874;SDS011;7529;48.170;17.138;2022-09-23T11:06:55;4.18;;;3.97;;
14874;SDS011;7529;48.170;17.138;2022-09-23T11:11:47;4.35;;;4.15;;
14874;SDS011;7529;48.170;17.138;2022-09-23T11:21:01;11.50;;;11.00;;
14874;SDS011;7529;48.170;17.138;2022-09-23T11:31:13;5.18;;;4.88;;
14874;SDS011;7529;48.170;17.138;2022-09-23T11:36:25;6.88;;;6.45;;
14874;SDS011;7529;48.170;17.138;2022-09-23T11:40:43;6.60;;;6.30;;
14874;SDS011;7529;48.170;17.138;2022-09-23T11:45:19;6.65;;;6.35;;
14874;SDS011;7529;48.170;17.138;2022-09-23T11:54:51;6.10;;;5.80;;
14874;SDS011;7529;48.170;17.138;2022-09-23T12:08:35;5.80;;;5.50;;
14874;SDS011;7529;48.170;17.138;2022-09-23T12:17:43;4.63;;;4.43;;
14874;SDS011;7529;48.170;17.138;2022-09-23T12:26:22;4.38;;;4.07;;
14874;SDS011;7529;48.170;17.138;2022-09-23T12:30:35;3.95;;;3.75;;
14874;SDS011;7529;48.170;17.138;2022-09-23T12:34:48;2.92;;;2.80;;
14874;SDS011;7529;48.170;17.138;2022-09-23T12:39:02;4.65;;;4.35;;
14874;SDS011;7529;48.170;17.138;2022-09-23T12:43:28;3.00;;;2.80;;
14874;SDS011;7529;48.170;17.138;2022-09-23T12:47:42;3.33;;;3.13;;
14874;SDS011;7529;48.170;17.138;2022-09-23T12:52:28;2.47;;;2.28;;
14874;SDS011;7529;48.170;17.138;2022-09-23T13:01:05;2.70;;;2.50;;
14874;SDS011;7529;48.170;17.138;2022-09-23T13:05:26;2.40;;;2.30;;
14874;SDS011;7529;48.170;17.138;2022-09-23T13:10:07;2.30;;;2.20;;
14874;SDS011;7529;48.170;17.138;2022-09-23T13:14:36;2.53;;;2.42;;
14874;SDS011;7529;48.170;17.138;2022-09-23T13:27:27;2.72;;;2.63;;
14874;SDS011;7529;48.170;17.138;2022-09-23T13:31:42;3.00;;;2.90;;
14874;SDS011;7529;48.170;17.138;2022-09-23T13:35:56;2.53;;;2.42;;
14874;SDS011;7529;48.170;17.138;2022-09-23T13:40:16;3.15;;;3.05;;
14874;SDS011;7529;48.170;17.138;2022-09-23T13:44:38;3.30;;;3.10;;
14874;SDS011;7529;48.170;17.138;2022-09-23T13:48:51;3.50;;;3.30;;
14874;SDS011;7529;48.170;17.138;2022-09-23T13:53:07;3.20;;;3.10;;
14874;SDS011;7529;48.170;17.138;2022-09-23T13:57:24;7.63;;;3.63;;
14874;SDS011;7529;48.170;17.138;2022-09-23T14:01:46;3.28;;;3.17;;
14874;SDS011;7529;48.170;17.138;2022-09-23T14:06:02;3.80;;;3.60;;
14874;SDS011;7529;48.170;17.138;2022-09-23T14:10:22;3.67;;;3.40;;
14874;SDS011;7529;48.170;17.138;2022-09-23T14:14:37;15.23;;;7.32;;
14874;SDS011;7529;48.170;17.138;2022-09-23T14:18:51;4.10;;;3.90;;
14874;SDS011;7529;48.170;17.138;2022-09-23T14:23:11;3.60;;;3.50;;
14874;SDS011;7529;48.170;17.138;2022-09-23T14:31:38;3.97;;;3.60;;
14874;SDS011;7529;48.170;17.138;2022-09-23T14:35:52;6.93;;;5.22;;
14874;SDS011;7529;48.170;17.138;2022-09-23T14:44:48;4.10;;;3.90;;
14874;SDS011;7529;48.170;17.138;2022-09-23T14:49:04;4.03;;;3.83;;
14874;SDS011;7529;48.170;17.138;2022-09-23T14:53:59;4.38;;;4.07;;
14874;SDS011;7529;48.170;17.138;2022-09-23T14:58:03;4.10;;;3.90;;
14874;SDS011;7529;48.170;17.138;2022-09-23T15:02:29;4.57;;;4.30;;
14874;SDS011;7529;48.170;17.138;2022-09-23T15:06:54;4.32;;;4.13;;
14874;SDS011;7529;48.170;17.138;2022-09-23T15:11:06;4.05;;;3.85;;
14874;SDS011;7529;48.170;17.138;2022-09-23T15:15:18;3.88;;;3.65;;
14874;SDS011;7529;48.170;17.138;2022-09-23T15:19:39;4.55;;;4.35;;
14874;SDS011;7529;48.170;17.138;2022-09-23T15:23:52;5.05;;;4.85;;
14874;SDS011;7529;48.170;17.138;2022-09-23T15:32:21;5.18;;;4.88;;
14874;SDS011;7529;48.170;17.138;2022-09-23T15:36:33;4.95;;;4.07;;
14874;SDS011;7529;48.170;17.138;2022-09-23T15:40:44;4.93;;;4.53;;
14874;SDS011;7529;48.170;17.138;2022-09-23T15:44:56;4.70;;;4.45;;
14874;SDS011;7529;48.170;17.138;2022-09-23T15:49:08;4.22;;;4.03;;
14874;SDS011;7529;48.170;17.138;2022-09-23T15:53:27;5.05;;;4.75;;
14874;SDS011;7529;48.170;17.138;2022-09-23T15:57:39;4.65;;;4.45;;
14874;SDS011;7529;48.170;17.138;2022-09-23T16:01:50;7.13;;;6.65;;
14874;SDS011;7529;48.170;17.138;2022-09-23T16:06:03;7.30;;;6.80;;
14874;SDS011;7529;48.170;17.138;2022-09-23T16:10:16;6.85;;;6.45;;
14874;SDS011;7529;48.170;17.138;2022-09-23T16:14:29;4.20;;;4.00;;
14874;SDS011;7529;48.170;17.138;2022-09-23T16:18:41;5.38;;;5.07;;
14874;SDS011;7529;48.170;17.138;2022-09-23T16:22:57;6.13;;;5.82;;
14874;SDS011;7529;48.170;17.138;2022-09-23T16:27:12;7.32;;;7.00;;
14874;SDS011;7529;48.170;17.138;2022-09-23T16:31:28;6.15;;;5.90;;
14874;SDS011;7529;48.170;17.138;2022-09-23T16:35:40;7.47;;;6.97;;
14874;SDS011;7529;48.170;17.138;2022-09-23T16:39:51;27.63;;;26.33;;
14874;SDS011;7529;48.170;17.138;2022-09-23T16:44:03;37.88;;;36.17;;
14874;SDS011;7529;48.170;17.138;2022-09-23T16:48:17;78.43;;;74.88;;
14874;SDS011;7529;48.170;17.138;2022-09-23T16:52:29;92.13;;;87.93;;
14874;SDS011;7529;48.170;17.138;2022-09-23T16:56:41;120.00;;;114.32;;
14874;SDS011;7529;48.170;17.138;2022-09-23T17:00:56;150.15;;;142.73;;
14874;SDS011;7529;48.170;17.138;2022-09-23T17:05:44;169.55;;;161.00;;
14874;SDS011;7529;48.170;17.138;2022-09-23T17:09:56;169.27;;;160.70;;
14874;SDS011;7529;48.170;17.138;2022-09-23T17:14:07;209.70;;;199.35;;
14874;SDS011;7529;48.170;17.138;2022-09-23T17:18:20;189.18;;;180.05;;
14874;SDS011;7529;48.170;17.138;2022-09-23T17:22:32;258.80;;;244.80;;
14874;SDS011;7529;48.170;17.138;2022-09-23T17:27:02;237.55;;;225.38;;
14874;SDS011;7529;48.170;17.138;2022-09-23T17:31:13;288.23;;;272.77;;
14874;SDS011;7529;48.170;17.138;2022-09-23T17:35:24;327.17;;;308.88;;
14874;SDS011;7529;48.170;17.138;2022-09-23T17:39:36;316.95;;;300.08;;
14874;SDS011;7529;48.170;17.138;2022-09-23T17:43:52;393.48;;;371.20;;
14874;SDS011;7529;48.170;17.138;2022-09-23T17:48:06;293.10;;;278.35;;
14874;SDS011;7529;48.170;17.138;2022-09-23T17:52:17;341.35;;;323.83;;
14874;SDS011;7529;48.170;17.138;2022-09-23T17:56:29;387.48;;;366.60;;
14874;SDS011;7529;48.170;17.138;2022-09-23T18:00:40;393.05;;;371.73;;
14874;SDS011;7529;48.170;17.138;2022-09-23T18:04:55;421.88;;;398.60;;
14874;SDS011;7529;48.170;17.138;2022-09-23T18:09:07;348.08;;;330.05;;
14874;SDS011;7529;48.170;17.138;2022-09-23T18:13:19;458.80;;;431.85;;
14874;SDS011;7529;48.170;17.138;2022-09-23T18:17:30;340.05;;;321.85;;
14874;SDS011;7529;48.170;17.138;2022-09-23T18:21:42;377.92;;;357.60;;
14874;SDS011;7529;48.170;17.138;2022-09-23T18:25:59;365.70;;;346.13;;
14874;SDS011;7529;48.170;17.138;2022-09-23T18:30:11;360.33;;;340.13;;
14874;SDS011;7529;48.170;17.138;2022-09-23T18:34:23;321.17;;;303.98;;
14874;SDS011;7529;48.170;17.138;2022-09-23T18:38:37;321.20;;;303.90;;
14874;SDS011;7529;48.170;17.138;2022-09-23T18:42:49;334.08;;;315.77;;
14874;SDS011;7529;48.170;17.138;2022-09-23T18:47:00;332.77;;;313.40;;
14874;SDS011;7529;48.170;17.138;2022-09-23T18:51:11;320.25;;;302.55;;
14874;SDS011;7529;48.170;17.138;2022-09-23T18:55:23;333.40;;;314.13;;
14874;SDS011;7529;48.170;17.138;2022-09-23T18:59:35;366.02;;;344.63;;
14874;SDS011;7529;48.170;17.138;2022-09-23T19:03:46;406.13;;;381.52;;
14874;SDS011;7529;48.170;17.138;2022-09-23T19:07:57;404.50;;;379.25;;
14874;SDS011;7529;48.170;17.138;2022-09-23T19:12:09;387.73;;;364.50;;
14874;SDS011;7529;48.170;17.138;2022-09-23T19:16:22;374.08;;;350.85;;
14874;SDS011;7529;48.170;17.138;2022-09-23T19:20:34;453.20;;;423.92;;
14874;SDS011;7529;48.170;17.138;2022-09-23T19:24:45;388.95;;;365.80;;
14874;SDS011;7529;48.170;17.138;2022-09-23T19:28:57;392.33;;;368.90;;
14874;SDS011;7529;48.170;17.138;2022-09-23T19:33:10;438.92;;;411.23;;
14874;SDS011;7529;48.170;17.138;2022-09-23T19:37:21;403.40;;;378.52;;
14874;SDS011;7529;48.170;17.138;2022-09-23T19:41:32;425.92;;;398.00;;
14874;SDS011;7529;48.170;17.138;2022-09-23T19:45:53;426.42;;;398.65;;
14874;SDS011;7529;48.170;17.138;2022-09-23T19:50:04;499.17;;;465.83;;
14874;SDS011;7529;48.170;17.138;2022-09-23T19:54:16;450.52;;;421.48;;
14874;SDS011;7529;48.170;17.138;2022-09-23T19:58:30;466.25;;;436.02;;
14874;SDS011;7529;48.170;17.138;2022-09-23T20:02:44;443.65;;;414.77;;
14874;SDS011;7529;48.170;17.138;2022-09-23T20:06:56;461.88;;;431.73;;
14874;SDS011;7529;48.170;17.138;2022-09-23T20:11:11;471.45;;;440.25;;
14874;SDS011;7529;48.170;17.138;2022-09-23T20:15:29;480.27;;;447.75;;
14874;SDS011;7529;48.170;17.138;2022-09-23T20:19:40;493.55;;;461.30;;
14874;SDS011;7529;48.170;17.138;2022-09-23T20:23:51;481.60;;;449.70;;
14874;SDS011;7529;48.170;17.138;2022-09-23T20:28:03;494.35;;;461.63;;
14874;SDS011;7529;48.170;17.138;2022-09-23T20:32:15;533.88;;;497.48;;
14874;SDS011;7529;48.170;17.138;2022-09-23T20:36:27;513.97;;;479.55;;
14874;SDS011;7529;48.170;17.138;2022-09-23T20:40:39;500.13;;;466.42;;
14874;SDS011;7529;48.170;17.138;2022-09-23T20:44:50;499.70;;;465.73;;
14874;SDS011;7529;48.170;17.138;2022-09-23T20:49:01;507.38;;;474.15;;
14874;SDS011;7529;48.170;17.138;2022-09-23T20:53:13;505.02;;;471.60;;
14874;SDS011;7529;48.170;17.138;2022-09-23T20:57:24;502.90;;;468.95;;
14874;SDS011;7529;48.170;17.138;2022-09-23T21:01:37;495.63;;;462.45;;
14874;SDS011;7529;48.170;17.138;2022-09-23T21:05:48;546.10;;;509.30;;
14874;SDS011;7529;48.170;17.138;2022-09-23T21:09:59;545.67;;;508.95;;
14874;SDS011;7529;48.170;17.138;2022-09-23T21:14:16;540.75;;;504.20;;
14874;SDS011;7529;48.170;17.138;2022-09-23T21:18:27;539.78;;;503.15;;
14874;SDS011;7529;48.170;17.138;2022-09-23T21:22:39;546.45;;;509.42;;
14874;SDS011;7529;48.170;17.138;2022-09-23T21:26:51;531.92;;;495.35;;
14874;SDS011;7529;48.170;17.138;2022-09-23T21:31:04;548.72;;;510.58;;
14874;SDS011;7529;48.170;17.138;2022-09-23T21:35:17;553.78;;;515.80;;
14874;SDS011;7529;48.170;17.138;2022-09-23T21:39:28;565.35;;;526.95;;
14874;SDS011;7529;48.170;17.138;2022-09-23T21:43:40;551.15;;;512.63;;
14874;SDS011;7529;48.170;17.138;2022-09-23T21:47:51;535.15;;;498.35;;
14874;SDS011;7529;48.170;17.138;2022-09-23T21:52:03;559.75;;;520.58;;
14874;SDS011;7529;48.170;17.138;2022-09-23T21:56:15;556.58;;;517.85;;
14874;SDS011;7529;48.170;17.138;2022-09-23T22:00:37;565.03;;;525.10;;
14874;SDS011;7529;48.170;17.138;2022-09-23T22:05:07;584.80;;;543.97;;
14874;SDS011;7529;48.170;17.138;2022-09-23T22:09:19;544.80;;;506.33;;
14874;SDS011;7529;48.170;17.138;2022-09-23T22:13:31;573.25;;;532.15;;
14874;SDS011;7529;48.170;17.138;2022-09-23T22:17:42;577.03;;;535.85;;
14874;SDS011;7529;48.170;17.138;2022-09-23T22:21:53;584.90;;;542.83;;
14874;SDS011;7529;48.170;17.138;2022-09-23T22:26:05;565.90;;;525.05;;
14874;SDS011;7529;48.170;17.138;2022-09-23T22:30:16;608.63;;;565.33;;
14874;SDS011;7529;48.170;17.138;2022-09-23T22:34:46;631.92;;;586.20;;
14874;SDS011;7529;48.170;17.138;2022-09-23T22:38:58;603.05;;;559.63;;
14874;SDS011;7529;48.170;17.138;2022-09-23T22:43:12;620.65;;;576.65;;
14874;SDS011;7529;48.170;17.138;2022-09-23T22:47:23;647.72;;;601.50;;
14874;SDS011;7529;48.170;17.138;2022-09-23T22:51:36;628.50;;;583.92;;
14874;SDS011;7529;48.170;17.138;2022-09-23T22:55:57;637.08;;;592.40;;
14874;SDS011;7529;48.170;17.138;2022-09-23T23:00:12;641.35;;;596.35;;
14874;SDS011;7529;48.170;17.138;2022-09-23T23:04:23;655.17;;;608.92;;
14874;SDS011;7529;48.170;17.138;2022-09-23T23:08:35;640.95;;;596.28;;
14874;SDS011;7529;48.170;17.138;2022-09-23T23:12:46;633.10;;;588.75;;
14874;SDS011;7529;48.170;17.138;2022-09-23T23:16:58;634.22;;;590.50;;
14874;SDS011;7529;48.170;17.138;2022-09-23T23:21:11;634.58;;;591.42;;
14874;SDS011;7529;48.170;17.138;2022-09-23T23:25:25;676.90;;;629.80;;
14874;SDS011;7529;48.170;17.138;2022-09-23T23:29:37;635.90;;;592.35;;
14874;SDS011;7529;48.170;17.138;2022-09-23T23:33:48;637.17;;;594.95;;
14874;SDS011;7529;48.170;17.138;2022-09-23T23:38:00;647.45;;;603.13;;
14874;SDS011;7529;48.170;17.138;2022-09-23T23:42:14;595.88;;;557.22;;
14874;SDS011;7529;48.170;17.138;2022-09-23T23:46:26;563.90;;;527.47;;
14874;SDS011;7529;48.170;17.138;2022-09-23T23:50:39;535.00;;;501.80;;
14874;SDS011;7529;48.170;17.138;2022-09-23T23:54:51;524.58;;;492.70;;
14874;SDS011;7529;48.170;17.138;2022-09-23T23:59:02;428.83;;;404.85;;
